Time;durP1;ratioP1;P1;durP2;ratioP2;P2;SDS_P1;SDS_P2;PMS_P1;PMS_P2;Temp;Humidity;BMP_temperature;BMP_pressure;BME280_temperature;BME280_humidity;BME280_pressure;Samples;Min_cycle;Max_cycle;Signal;HPM_P1;HPM_P2
2021/12/08 00:01:07;;;;;;;1999.90;999.90;;;5.20;99.90;;;;;;4990546;28;20213;-71
2021/12/08 00:03:33;;;;;;;1999.90;999.90;;;5.20;99.90;;;;;;4990792;28;20413;-71
2021/12/08 00:05:59;;;;;;;1999.90;999.90;;;5.10;99.90;;;;;;4990634;28;20413;-70
2021/12/08 00:08:28;;;;;;;1999.90;999.90;;;5.20;99.90;;;;;;4990709;28;20976;-71
2021/12/08 00:13:32;;;;;;;1999.90;999.90;;;5.20;99.90;;;;;;4990707;28;20408;-71
2021/12/08 00:16:01;;;;;;;1999.90;999.90;;;5.20;99.90;;;;;;4990275;28;20400;-71
2021/12/08 00:18:29;;;;;;;1999.90;999.90;;;5.30;99.90;;;;;;4990570;28;20647;-70
2021/12/08 00:20:57;;;;;;;1999.90;999.90;;;5.30;99.90;;;;;;4990479;28;20440;-71
2021/12/08 00:23:24;;;;;;;1999.90;999.90;;;5.30;99.90;;;;;;4990585;28;20474;-71
2021/12/08 00:25:50;;;;;;;1999.90;999.90;;;5.40;99.90;;;;;;4990166;28;20488;-71
2021/12/08 00:28:16;;;;;;;1999.90;999.90;;;5.50;99.90;;;;;;4990278;28;20413;-71
2021/12/08 00:30:45;;;;;;;1999.90;999.90;;;5.50;99.90;;;;;;4990425;28;20772;-71
2021/12/08 00:33:12;;;;;;;1999.90;999.90;;;5.50;99.90;;;;;;4990300;28;20177;-71
2021/12/08 00:35:40;;;;;;;1999.90;999.90;;;5.60;99.90;;;;;;4990128;28;20413;-72
2021/12/08 00:38:06;;;;;;;1999.90;999.90;;;5.60;99.90;;;;;;4990191;28;20262;-71
2021/12/08 00:40:32;;;;;;;1999.90;999.90;;;5.60;99.90;;;;;;4990112;28;20432;-71
2021/12/08 00:42:59;;;;;;;1999.90;999.90;;;5.70;99.90;;;;;;4990127;28;20483;-71
2021/12/08 00:45:25;;;;;;;1999.90;999.90;;;5.70;99.90;;;;;;4989272;28;20401;-71
2021/12/08 00:47:52;;;;;;;1999.90;999.90;;;5.70;99.90;;;;;;4990221;28;20413;-71
2021/12/08 00:50:20;;;;;;;1999.90;999.90;;;5.80;99.90;;;;;;4990061;28;20460;-72
2021/12/08 00:52:46;;;;;;;1999.90;999.90;;;5.80;99.90;;;;;;4990032;28;20416;-70
2021/12/08 00:55:16;;;;;;;1999.90;999.90;;;5.80;99.90;;;;;;4989949;28;20397;-71
2021/12/08 00:57:42;;;;;;;1999.90;999.90;;;5.90;99.90;;;;;;4990219;28;20207;-70
2021/12/08 01:00:12;;;;;;;1999.90;999.90;;;5.80;99.90;;;;;;4989846;28;20405;-71
2021/12/08 01:02:39;;;;;;;1999.90;999.90;;;5.90;99.90;;;;;;4989908;28;20455;-70
2021/12/08 01:05:10;;;;;;;1999.90;999.90;;;5.90;99.90;;;;;;4989589;28;20413;-71
2021/12/08 01:07:36;;;;;;;1999.90;999.90;;;6.00;99.90;;;;;;4990113;28;20890;-70
2021/12/08 01:10:06;;;;;;;1999.90;999.90;;;6.00;99.90;;;;;;4989674;28;21126;-72
2021/12/08 01:12:32;;;;;;;1999.90;999.90;;;6.00;99.90;;;;;;4989931;28;20452;-70
2021/12/08 01:14:58;;;;;;;1999.90;999.90;;;6.10;99.90;;;;;;4989501;28;20404;-71
2021/12/08 01:17:23;;;;;;;1999.90;999.90;;;6.00;99.90;;;;;;4989776;28;20166;-71
2021/12/08 01:19:49;;;;;;;1999.90;999.90;;;6.00;99.90;;;;;;4989707;28;20226;-71
2021/12/08 01:22:15;;;;;;;1999.90;999.90;;;6.00;99.90;;;;;;4989794;28;20194;-71
2021/12/08 01:24:40;;;;;;;1999.90;999.90;;;6.10;99.90;;;;;;4989446;28;20174;-71
2021/12/08 01:27:06;;;;;;;1999.90;999.90;;;6.10;99.90;;;;;;4989744;28;20405;-70
2021/12/08 01:29:31;;;;;;;1999.90;999.90;;;6.10;99.90;;;;;;4989521;28;20572;-71
2021/12/08 01:31:57;;;;;;;1999.90;999.90;;;6.10;99.90;;;;;;4989511;28;20186;-71
2021/12/08 01:34:22;;;;;;;1999.90;999.90;;;6.10;99.90;;;;;;4989304;28;20253;-71
2021/12/08 01:36:48;;;;;;;1999.90;999.90;;;6.20;99.90;;;;;;4989514;28;20172;-71
2021/12/08 01:39:14;;;;;;;1999.90;999.90;;;6.20;99.90;;;;;;4989515;28;20182;-71
2021/12/08 01:41:40;;;;;;;1999.90;999.90;;;6.30;99.90;;;;;;4989405;28;20550;-71
2021/12/08 01:46:55;;;;;;;1999.90;999.90;;;6.30;99.90;;;;;;4989814;28;20459;-71
2021/12/08 01:49:22;;;;;;;1999.90;999.90;;;6.30;99.90;;;;;;4989504;28;20448;-71
2021/12/08 01:51:48;;;;;;;1999.90;999.90;;;6.30;99.90;;;;;;4989386;28;20452;-71
2021/12/08 01:54:15;;;;;;;1999.90;999.90;;;6.40;99.90;;;;;;4989398;28;20409;-71
2021/12/08 01:56:40;;;;;;;1999.90;999.90;;;6.40;99.90;;;;;;4989602;28;20827;-72
2021/12/08 01:59:09;;;;;;;1999.90;999.90;;;6.30;99.90;;;;;;4992721;28;20405;-70
2021/12/08 02:01:37;;;;;;;1999.90;999.90;;;6.30;99.90;;;;;;4992503;28;20220;-71
2021/12/08 02:04:04;;;;;;;1999.90;999.90;;;6.30;99.90;;;;;;4992220;28;20465;-70
2021/12/08 02:06:40;;;;;;;1999.90;999.90;;;6.30;99.90;;;;;;4992704;28;20412;-71
2021/12/08 02:09:10;;;;;;;1999.90;999.90;;;6.30;99.90;;;;;;4992480;28;20555;-71
2021/12/08 02:11:37;;;;;;;1999.90;999.90;;;6.30;99.90;;;;;;4992464;28;20528;-70
2021/12/08 02:14:03;;;;;;;1999.90;999.90;;;6.30;99.90;;;;;;4992086;28;20413;-70
2021/12/08 02:16:30;;;;;;;1999.90;999.90;;;6.30;99.90;;;;;;4992389;28;20412;-72
2021/12/08 02:18:57;;;;;;;1999.90;999.90;;;6.30;99.90;;;;;;4992358;28;20405;-71
2021/12/08 02:21:31;;;;;;;1999.90;999.90;;;6.30;99.90;;;;;;4992142;28;20429;-72
2021/12/08 02:24:00;;;;;;;1999.90;999.90;;;6.30;99.90;;;;;;4992370;28;20431;-71
2021/12/08 02:26:27;;;;;;;1999.90;999.90;;;6.30;99.90;;;;;;4992185;28;20783;-70
2021/12/08 02:28:53;;;;;;;1999.90;999.90;;;6.30;99.90;;;;;;4992131;28;20526;-71
2021/12/08 02:31:29;;;;;;;1999.90;999.90;;;6.40;99.90;;;;;;4992159;28;20429;-71
2021/12/08 02:47:55;;;;;;;1999.90;999.90;;;6.50;99.90;;;;;;4992200;28;20824;-71
2021/12/08 02:50:30;;;;;;;1999.90;999.90;;;6.50;99.90;;;;;;4991745;28;20510;-71
2021/12/08 02:52:58;;;;;;;1999.90;999.90;;;6.60;99.90;;;;;;4991961;28;20403;-71
2021/12/08 02:55:24;;;;;;;1999.90;999.90;;;6.60;99.90;;;;;;4991512;28;20402;-72
2021/12/08 02:57:51;;;;;;;1999.90;999.90;;;6.70;99.90;;;;;;4991770;28;20409;-71
2021/12/08 03:00:24;;;;;;;1999.90;999.90;;;6.70;99.90;;;;;;4991483;28;20413;-71
2021/12/08 03:02:50;;;;;;;1999.90;999.90;;;6.80;99.90;;;;;;4991923;28;20423;-72
2021/12/08 03:05:17;;;;;;;1999.90;999.90;;;6.80;99.90;;;;;;4991333;28;20421;-71
2021/12/08 03:07:43;;;;;;;1999.90;999.90;;;6.80;99.90;;;;;;4991189;28;20405;-71
2021/12/08 03:10:12;;;;;;;1999.90;999.90;;;6.70;99.90;;;;;;4991441;28;20456;-70
2021/12/08 03:12:39;;;;;;;1999.90;999.90;;;6.70;99.90;;;;;;4991501;28;20914;-71
2021/12/08 03:15:06;;;;;;;1999.90;999.90;;;6.80;99.90;;;;;;4991439;28;20401;-70
2021/12/08 03:17:34;;;;;;;1999.90;999.90;;;6.80;99.90;;;;;;4991428;28;20404;-70
2021/12/08 03:20:01;;;;;;;1999.90;999.90;;;6.80;99.90;;;;;;4991620;28;20436;-71
2021/12/08 03:22:26;;;;;;;1999.90;999.90;;;6.80;99.90;;;;;;4991374;28;20485;-71
2021/12/08 03:24:53;;;;;;;1999.90;999.90;;;6.80;99.90;;;;;;4991079;28;20492;-72
2021/12/08 03:27:26;;;;;;;1999.90;999.90;;;6.80;99.90;;;;;;4991245;28;20265;-71
2021/12/08 03:30:11;;;;;;;1999.90;999.90;;;6.80;99.90;;;;;;4991462;28;20535;-70
2021/12/08 03:32:39;;;;;;;1999.90;999.90;;;6.80;99.90;;;;;;4991501;28;20929;-72
2021/12/08 03:35:08;;;;;;;1999.90;999.90;;;6.70;99.90;;;;;;4991034;28;20869;-71
2021/12/08 03:37:36;;;;;;;1999.90;999.90;;;6.70;99.90;;;;;;4991219;28;20397;-72
2021/12/08 03:40:08;;;;;;;1999.90;999.90;;;6.70;99.90;;;;;;4991002;28;20511;-71
2021/12/08 03:42:37;;;;;;;1999.90;999.90;;;6.70;99.90;;;;;;4991348;28;20770;-71
2021/12/08 03:45:09;;;;;;;1999.90;999.90;;;6.70;99.90;;;;;;4991049;28;20413;-70
2021/12/08 03:47:39;;;;;;;1999.90;999.90;;;6.70;99.90;;;;;;4991015;28;20385;-71
2021/12/08 03:50:07;;;;;;;1999.90;999.90;;;6.80;99.90;;;;;;4990873;28;20474;-72
2021/12/08 03:52:33;;;;;;;1999.90;999.90;;;6.80;99.90;;;;;;4990946;28;20505;-71
2021/12/08 03:54:59;;;;;;;1999.90;999.90;;;6.80;99.90;;;;;;4991032;28;20888;-72
2021/12/08 03:57:24;;;;;;;1999.90;999.90;;;6.80;99.90;;;;;;4990899;28;20169;-71
2021/12/08 03:59:50;;;;;;;1999.90;999.90;;;6.90;99.90;;;;;;4990941;28;20178;-72
2021/12/08 04:02:16;;;;;;;1999.90;999.90;;;7.10;99.90;;;;;;4991123;28;20212;-71
2021/12/08 04:04:48;;;;;;;1999.90;999.90;;;7.20;99.90;;;;;;4990503;28;20978;-70
2021/12/08 04:07:15;;;;;;;1999.90;999.90;;;7.30;99.90;;;;;;4990748;28;20239;-70
2021/12/08 04:09:43;;;;;;;1999.90;999.90;;;7.40;99.90;;;;;;4990772;28;20893;-71
2021/12/08 04:12:11;;;;;;;1999.90;999.90;;;7.50;99.90;;;;;;4990611;28;20993;-71
2021/12/08 04:14:40;;;;;;;1999.90;999.90;;;7.50;99.90;;;;;;4990304;28;20406;-72
2021/12/08 04:17:25;;;;;;;1999.90;999.90;;;7.60;99.90;;;;;;4990607;28;20491;-71
2021/12/08 04:19:54;;;;;;;1999.90;999.90;;;7.60;99.90;;;;;;4989592;28;20483;-71
2021/12/08 04:22:29;;;;;;;1999.90;999.90;;;7.60;99.90;;;;;;4990628;28;20441;-71
2021/12/08 04:24:56;;;;;;;1999.90;999.90;;;7.60;99.90;;;;;;4990229;28;20407;-72
2021/12/08 04:27:27;;;;;;;1999.90;999.90;;;7.40;99.90;;;;;;4990389;28;20421;-71
2021/12/08 04:29:54;;;;;;;1999.90;999.90;;;7.40;99.90;;;;;;4990415;28;20498;-71
2021/12/08 04:32:24;;;;;;;1999.90;999.90;;;7.30;99.90;;;;;;4990354;28;20468;-71
2021/12/08 04:34:54;;;;;;;1999.90;999.90;;;7.30;99.90;;;;;;4990166;28;20405;-71
2021/12/08 04:37:27;;;;;;;1999.90;999.90;;;7.20;99.90;;;;;;4990395;28;20459;-70
2021/12/08 04:40:39;;;;;;;1999.90;999.90;;;7.10;99.90;;;;;;4990321;28;20481;-71
2021/12/08 04:43:17;;;;;;;1999.90;999.90;;;7.00;99.90;;;;;;4990570;28;20404;-71
2021/12/08 04:46:01;;;;;;;1999.90;999.90;;;7.00;99.90;;;;;;4990074;28;20421;-71
2021/12/08 05:02:05;;;;;;;1999.90;999.90;;;6.70;99.90;;;;;;4990128;28;20459;-72
2021/12/08 05:09:55;;;;;;;1999.90;999.90;;;6.90;99.90;;;;;;4990061;28;20456;-71
2021/12/08 05:12:27;;;;;;;1999.90;999.90;;;7.00;99.90;;;;;;4989775;28;20433;-71
2021/12/08 05:14:58;;;;;;;1999.90;999.90;;;6.90;99.90;;;;;;4989437;28;20409;-71
2021/12/08 05:17:26;;;;;;;1999.90;999.90;;;6.90;99.90;;;;;;4989744;28;20788;-71
2021/12/08 05:19:56;;;;;;;1999.90;999.90;;;6.90;99.90;;;;;;4989682;28;20413;-72
2021/12/08 05:22:34;;;;;;;1999.90;999.90;;;6.70;99.90;;;;;;4989682;28;20424;-71
2021/12/08 05:25:05;;;;;;;1999.90;999.90;;;6.70;99.90;;;;;;4989390;28;20408;-70
2021/12/08 05:27:38;;;;;;;1999.90;999.90;;;6.70;99.90;;;;;;4989748;28;20456;-71
2021/12/08 05:30:09;;;;;;;1999.90;999.90;;;6.60;99.90;;;;;;4989510;28;20456;-72
2021/12/08 05:32:35;;;;;;;1999.90;999.90;;;6.60;99.90;;;;;;4992331;28;20515;-72
2021/12/08 05:35:02;;;;;;;1999.90;999.90;;;6.50;99.90;;;;;;4993194;28;20902;-72
2021/12/08 05:37:28;;;;;;;1999.90;999.90;;;6.40;99.90;;;;;;4992988;28;20444;-72
2021/12/08 05:39:54;;;;;;;1999.90;999.90;;;6.50;99.90;;;;;;4992961;28;20853;-71
2021/12/08 05:42:26;;;;;;;1999.90;999.90;;;6.50;99.90;;;;;;4992950;28;20515;-71
2021/12/08 05:44:53;;;;;;;1999.90;999.90;;;6.40;99.90;;;;;;4992796;28;20940;-71
2021/12/08 05:47:25;;;;;;;1999.90;999.90;;;6.40;99.90;;;;;;4992843;28;20412;-71
2021/12/08 05:49:51;;;;;;;1999.90;999.90;;;6.40;99.90;;;;;;4992886;28;20498;-72
2021/12/08 05:52:17;;;;;;;1999.90;999.90;;;6.40;99.90;;;;;;4992679;28;20432;-71
2021/12/08 05:54:45;;;;;;;1999.90;999.90;;;6.30;99.90;;;;;;4992539;28;20409;-72
2021/12/08 05:57:22;;;;;;;1999.90;999.90;;;6.40;99.90;;;;;;4992781;28;20504;-71
2021/12/08 05:59:49;;;;;;;1999.90;999.90;;;6.40;99.90;;;;;;4992878;28;20415;-70
2021/12/08 06:02:21;;;;;;;1999.90;999.90;;;6.40;99.90;;;;;;4992578;28;20449;-72
2021/12/08 06:04:47;;;;;;;1999.90;999.90;;;6.40;99.90;;;;;;4992540;28;20435;-71
2021/12/08 06:07:14;;;;;;;1999.90;999.90;;;6.30;99.90;;;;;;4992579;28;20459;-72
2021/12/08 06:09:41;;;;;;;1999.90;999.90;;;6.30;99.90;;;;;;4992505;28;20258;-72
2021/12/08 06:12:09;;;;;;;1999.90;999.90;;;6.30;99.90;;;;;;4992311;28;20437;-70
2021/12/08 06:14:37;;;;;;;1999.90;999.90;;;6.30;99.90;;;;;;4992136;28;20890;-70
2021/12/08 06:17:12;;;;;;;1999.90;999.90;;;6.40;99.90;;;;;;4992511;28;20782;-71
2021/12/08 06:19:41;;;;;;;1999.90;999.90;;;6.40;99.90;;;;;;4992592;28;20412;-71
2021/12/08 06:22:08;;;;;;;1999.90;999.90;;;6.40;99.90;;;;;;4992232;28;20425;-71
2021/12/08 06:24:34;;;;;;;1999.90;999.90;;;6.40;99.90;;;;;;4991838;28;20432;-71
2021/12/08 06:27:00;;;;;;;1999.90;999.90;;;6.50;99.90;;;;;;4992242;28;20826;-72
2021/12/08 06:29:26;;;;;;;1999.90;999.90;;;6.60;99.90;;;;;;4992263;28;20456;-70
2021/12/08 06:31:56;;;;;;;1999.90;999.90;;;6.70;99.90;;;;;;4992101;28;20478;-71
2021/12/08 06:34:23;;;;;;;1999.90;999.90;;;6.80;99.90;;;;;;4991740;28;20419;-70
2021/12/08 06:36:57;;;;;;;1999.90;999.90;;;6.80;99.90;;;;;;4992066;28;20405;-71
2021/12/08 06:39:35;;;;;;;1999.90;999.90;;;6.80;99.90;;;;;;4992313;28;20512;-71
2021/12/08 06:42:07;;;;;;;1999.90;999.90;;;6.70;99.90;;;;;;4992078;28;20432;-71
2021/12/08 06:44:40;;;;;;;1999.90;999.90;;;6.70;99.90;;;;;;4991578;28;20413;-70
2021/12/08 06:47:08;;;;;;;1999.90;999.90;;;6.70;99.90;;;;;;4992010;28;20393;-71
2021/12/08 06:49:34;;;;;;;1999.90;999.90;;;6.60;99.90;;;;;;4991763;28;20456;-71
2021/12/08 06:52:11;;;;;;;1999.90;999.90;;;6.60;99.90;;;;;;4991807;28;20448;-72
2021/12/08 06:54:54;;;;;;;1999.90;999.90;;;6.60;99.90;;;;;;4991662;28;20465;-71
2021/12/08 06:57:30;;;;;;;1999.90;999.90;;;6.50;99.90;;;;;;4991882;28;20431;-71
2021/12/08 07:00:17;;;;;;;1999.90;999.90;;;6.50;99.90;;;;;;4991717;28;20409;-71
2021/12/08 07:05:24;;;;;;;1999.90;999.90;;;6.40;99.90;;;;;;4992048;28;20496;-72
2021/12/08 07:07:50;;;;;;;1999.90;999.90;;;6.40;99.90;;;;;;4991976;28;20838;-71
2021/12/08 07:10:21;;;;;;;1999.90;999.90;;;6.50;99.90;;;;;;4991750;28;20492;-72
2021/12/08 07:12:51;;;;;;;1999.90;999.90;;;6.50;99.90;;;;;;4991924;28;20401;-72
2021/12/08 07:15:20;;;;;;;1999.90;999.90;;;6.40;99.90;;;;;;4991491;28;20402;-72
2021/12/08 07:17:50;;;;;;;1999.90;999.90;;;6.40;99.90;;;;;;4991626;28;20468;-72
2021/12/08 07:20:45;;;;;;;1999.90;999.90;;;6.30;99.90;;;;;;4991950;28;20412;-71
2021/12/08 07:23:46;;;;;;;1999.90;999.90;;;6.20;99.90;;;;;;4991472;28;20750;-71
2021/12/08 07:26:17;;;;;;;1999.90;999.90;;;6.20;99.90;;;;;;4979431;28;20517;-70
2021/12/08 07:28:43;;;;;;;1999.90;999.90;;;6.20;99.90;;;;;;4991305;28;20471;-71
2021/12/08 07:31:41;;;;;;;1999.90;999.90;;;6.30;99.90;;;;;;4991240;28;20432;-71
2021/12/08 07:34:15;;;;;;;1999.90;999.90;;;6.10;99.90;;;;;;4989922;28;20886;-71
2021/12/08 07:36:43;;;;;;;1999.90;999.90;;;6.10;99.90;;;;;;4991314;28;20947;-70
2021/12/08 07:39:17;;;;;;;1999.90;999.90;;;6.00;99.90;;;;;;4991199;28;20413;-72
2021/12/08 07:41:48;;;;;;;1999.90;999.90;;;6.00;99.90;;;;;;4991406;28;20420;-70
2021/12/08 07:44:16;;;;;;;1999.90;999.90;;;6.00;99.90;;;;;;4991225;28;20458;-70
2021/12/08 07:47:07;;;;;;;1999.90;999.90;;;5.90;99.90;;;;;;4991153;28;20912;-71
2021/12/08 07:49:55;;;;;;;1999.90;999.90;;;6.00;99.90;;;;;;4987518;28;20984;-72
2021/12/08 07:52:25;;;;;;;1999.90;999.90;;;5.90;99.90;;;;;;4990442;28;20441;-72
2021/12/08 07:54:51;;;;;;;1999.90;999.90;;;6.00;99.90;;;;;;4990653;28;20466;-72
2021/12/08 07:57:26;;;;;;;1999.90;999.90;;;6.00;99.90;;;;;;4990890;28;20409;-72
2021/12/08 07:59:55;;;;;;;1999.90;999.90;;;6.00;99.90;;;;;;4990888;28;20458;-71
2021/12/08 08:02:25;;;;;;;1999.90;999.90;;;6.10;99.90;;;;;;4990514;28;20495;-71
2021/12/08 08:04:53;;;;;;;1999.90;999.90;;;6.10;99.90;;;;;;4990712;28;20421;-71
2021/12/08 08:07:20;;;;;;;1999.90;999.90;;;6.00;99.90;;;;;;4990890;28;20776;-72
2021/12/08 08:09:49;;;;;;;1999.90;999.90;;;6.10;99.90;;;;;;4990610;28;20460;-71
2021/12/08 08:12:21;;;;;;;1999.90;999.90;;;6.00;99.90;;;;;;4990924;28;20506;-70
2021/12/08 08:14:52;;;;;;;1999.90;999.90;;;6.00;99.90;;;;;;4990346;28;20500;-71
2021/12/08 08:17:26;;;;;;;1999.90;999.90;;;6.00;99.90;;;;;;4990647;28;20408;-71
2021/12/08 08:19:52;;;;;;;1999.90;999.90;;;6.00;99.90;;;;;;4990755;28;20430;-71
2021/12/08 08:22:24;;;;;;;1999.90;999.90;;;6.00;99.90;;;;;;4990391;28;20425;-72
2021/12/08 08:24:53;;;;;;;1999.90;999.90;;;6.00;99.90;;;;;;4990326;28;20531;-71
2021/12/08 08:27:19;;;;;;;1999.90;999.90;;;6.00;99.90;;;;;;4990441;28;20405;-71
2021/12/08 08:29:45;;;;;;;1999.90;999.90;;;6.00;99.90;;;;;;4990328;28;20907;-71
2021/12/08 08:32:23;;;;;;;1999.90;999.90;;;6.00;99.90;;;;;;4990251;28;20431;-71
2021/12/08 08:34:53;;;;;;;1999.90;999.90;;;6.00;99.90;;;;;;4990086;28;20422;-71
2021/12/08 08:37:19;;;;;;;1999.90;999.90;;;6.00;99.90;;;;;;4990271;28;20747;-70
2021/12/08 08:39:53;;;;;;;1999.90;999.90;;;6.10;99.90;;;;;;4990224;28;20444;-72
2021/12/08 08:42:24;;;;;;;1999.90;999.90;;;6.20;99.90;;;;;;4990149;28;20471;-71
2021/12/08 08:44:55;;;;;;;1999.90;999.90;;;6.20;99.90;;;;;;4990013;28;20494;-70
2021/12/08 08:47:30;;;;;;;1999.90;999.90;;;6.20;99.90;;;;;;4990411;28;20909;-71
2021/12/08 08:49:57;;;;;;;1999.90;999.90;;;6.30;99.90;;;;;;4990150;28;21029;-71
2021/12/08 08:52:28;;;;;;;1999.90;999.90;;;6.30;99.90;;;;;;4990010;28;20796;-71
2021/12/08 08:54:58;;;;;;;1999.90;999.90;;;6.30;99.90;;;;;;4989797;28;20454;-72
2021/12/08 08:57:30;;;;;;;1999.90;999.90;;;6.40;99.90;;;;;;4989919;28;20406;-72
2021/12/08 09:00:10;;;;;;;1999.90;999.90;;;6.40;99.90;;;;;;4989993;28;20405;-71
2021/12/08 09:02:39;;;;;;;1999.90;999.90;;;6.40;99.90;;;;;;4990016;28;20449;-71
2021/12/08 09:05:16;;;;;;;1999.90;999.90;;;6.40;99.90;;;;;;4989580;28;20400;-71
2021/12/08 09:07:44;;;;;;;1999.90;999.90;;;6.40;99.90;;;;;;4989552;28;20766;-71
2021/12/08 09:10:25;;;;;;;1999.90;999.90;;;6.50;99.90;;;;;;4989822;28;20992;-71
2021/12/08 09:12:59;;;;;;;1999.90;999.90;;;6.40;99.90;;;;;;4989970;28;20933;-71
2021/12/08 09:15:36;;;;;;;1999.90;999.90;;;6.50;99.90;;;;;;4989799;28;20764;-71
2021/12/08 09:18:12;;;;;;;1999.90;999.90;;;6.70;99.90;;;;;;4989854;28;20389;-71
2021/12/08 09:20:37;;;;;;;1999.90;999.90;;;6.70;99.90;;;;;;4989822;28;20440;-71
2021/12/08 09:23:28;;;;;;;1999.90;999.90;;;6.70;99.90;;;;;;4989723;28;20409;-72
2021/12/08 09:26:05;;;;;;;1999.90;999.90;;;6.80;99.90;;;;;;4989639;28;20191;-71
2021/12/08 09:28:36;;;;;;;1999.90;999.90;;;6.90;99.90;;;;;;4989520;28;20413;-71
2021/12/08 09:31:07;;;;;;;1999.90;999.90;;;6.90;99.90;;;;;;4989298;28;20433;-71
2021/12/08 09:33:39;;;;;;;1999.90;999.90;;;7.10;99.90;;;;;;4989725;28;20409;-71
2021/12/08 09:36:13;;;;;;;1999.90;999.90;;;7.20;99.90;;;;;;4989276;28;20423;-71
2021/12/08 09:38:56;;;;;;;1999.90;999.90;;;7.20;99.90;;;;;;4989805;28;20870;-71
2021/12/08 09:41:37;;;;;;;1999.90;999.90;;;7.20;99.90;;;;;;4989286;28;20945;-71
2021/12/08 09:44:21;;;;;;;1999.90;999.90;;;7.30;99.90;;;;;;4989392;28;20395;-71
2021/12/08 09:46:48;;;;;;;1999.90;999.90;;;7.30;99.90;;;;;;4989455;28;20437;-72
2021/12/08 09:49:16;;;;;;;1999.90;999.90;;;7.30;99.90;;;;;;4989207;28;20546;-71
2021/12/08 09:51:43;;;;;;;1999.90;999.90;;;7.30;99.90;;;;;;4989297;28;20507;-71
2021/12/08 09:54:09;;;;;;;1999.90;999.90;;;7.40;99.90;;;;;;4988986;28;20946;-72
2021/12/08 09:56:35;;;;;;;1999.90;999.90;;;7.40;99.90;;;;;;4988982;28;20409;-70
2021/12/08 09:59:06;;;;;;;1999.90;999.90;;;7.30;99.90;;;;;;4989341;28;20413;-70
2021/12/08 10:01:33;;;;;;;1999.90;999.90;;;7.20;99.90;;;;;;4988744;28;21071;-72
2021/12/08 10:04:00;;;;;;;1999.90;999.90;;;7.20;99.90;;;;;;4988120;28;20492;-71
2021/12/08 10:06:27;;;;;;;1999.90;999.90;;;7.30;99.90;;;;;;4989374;28;20415;-71
2021/12/08 10:08:57;;;;;;;1999.90;999.90;;;7.30;99.90;;;;;;4988858;28;20456;-72
2021/12/08 10:11:25;;;;;;;1999.90;999.90;;;7.30;99.90;;;;;;4989087;28;20490;-72
2021/12/08 10:13:50;;;;;;;1999.90;999.90;;;7.30;99.90;;;;;;4986852;28;20431;-70
2021/12/08 10:16:16;;;;;;;1999.90;999.90;;;7.40;99.90;;;;;;4989057;28;20993;-70
2021/12/08 10:18:43;;;;;;;1999.90;999.90;;;7.30;99.90;;;;;;4990046;28;20178;-70
2021/12/08 10:21:10;;;;;;;1999.90;999.90;;;7.30;99.90;;;;;;4981885;28;20194;-72
2021/12/08 10:23:44;;;;;;;1999.90;999.90;;;7.40;99.90;;;;;;4992005;28;20474;-71
2021/12/08 10:26:14;;;;;;;1999.90;999.90;;;7.40;99.90;;;;;;4973584;28;20405;-70
2021/12/08 10:28:49;;;;;;;1999.90;999.90;;;7.30;99.90;;;;;;4973260;28;20402;-71
2021/12/08 10:31:24;;;;;;;1999.90;999.90;;;7.30;99.90;;;;;;4985386;28;20428;-71
2021/12/08 10:34:10;;;;;;;1999.90;999.90;;;7.40;99.90;;;;;;4983689;28;20762;-70
2021/12/08 10:36:50;;;;;;;1999.90;999.90;;;7.30;99.90;;;;;;4981429;28;20440;-70
2021/12/08 10:39:22;;;;;;;1999.90;999.90;;;7.30;99.90;;;;;;4992202;28;20373;-69
2021/12/08 10:42:04;;;;;;;1999.90;999.90;;;7.40;99.90;;;;;;4991890;28;20432;-70
2021/12/08 10:44:44;;;;;;;1999.90;999.90;;;7.40;99.90;;;;;;4991673;28;20396;-70
2021/12/08 10:47:12;;;;;;;1999.90;999.90;;;7.40;99.90;;;;;;4990832;28;20439;-68
2021/12/08 10:55:06;;;;;;;1999.90;999.90;;;7.40;99.90;;;;;;4972043;28;20444;-68
2021/12/08 10:57:35;;;;;;;1999.90;999.90;;;7.40;99.90;;;;;;4971953;28;20402;-69
2021/12/08 11:00:04;;;;;;;1999.90;999.90;;;7.40;99.90;;;;;;4968257;28;20413;-70
2021/12/08 11:02:36;;;;;;;1999.90;999.90;;;7.50;99.90;;;;;;4970973;28;20414;-69
2021/12/08 11:05:04;;;;;;;1999.90;999.90;;;7.50;99.90;;;;;;4969858;28;20410;-68
2021/12/08 11:07:31;;;;;;;1999.90;999.90;;;7.50;99.90;;;;;;4971328;28;20394;-70
2021/12/08 11:09:57;;;;;;;1999.90;999.90;;;7.60;99.90;;;;;;4971321;28;20548;-73
2021/12/08 11:12:39;;;;;;;1999.90;999.90;;;7.60;99.90;;;;;;4971500;28;20453;-68
2021/12/08 11:15:18;;;;;;;1999.90;999.90;;;7.70;99.90;;;;;;4970396;28;20414;-70
2021/12/08 11:17:44;;;;;;;1999.90;999.90;;;7.70;99.90;;;;;;4971641;28;20151;-69
2021/12/08 11:20:31;;;;;;;1999.90;999.90;;;7.80;99.90;;;;;;4970154;28;20506;-69
2021/12/08 11:23:02;;;;;;;1999.90;999.90;;;7.80;99.90;;;;;;4987483;28;20845;-70
2021/12/08 11:25:35;;;;;;;1999.90;999.90;;;7.80;99.90;;;;;;4975752;28;20402;-69
2021/12/08 11:28:21;;;;;;;1999.90;999.90;;;7.80;99.90;;;;;;4970710;28;20464;-69
2021/12/08 11:30:48;;;;;;;1999.90;999.90;;;7.90;99.90;;;;;;4970386;28;20457;-70
2021/12/08 11:33:17;;;;;;;1999.90;999.90;;;8.00;99.90;;;;;;4971948;28;20409;-69
2021/12/08 11:35:45;;;;;;;1999.90;999.90;;;8.10;99.90;;;;;;4970889;28;20781;-69
2021/12/08 11:38:10;;;;;;;1999.90;999.90;;;8.10;99.90;;;;;;4971642;28;20426;-69
2021/12/08 11:40:37;;;;;;;1999.90;999.90;;;8.20;99.90;;;;;;4970911;28;20469;-69
2021/12/08 11:43:03;;;;;;;1999.90;999.90;;;8.10;99.90;;;;;;4970413;28;20174;-70
2021/12/08 11:45:37;;;;;;;1999.90;999.90;;;8.20;99.90;;;;;;4970923;28;20980;-70
2021/12/08 11:48:04;;;;;;;1999.90;999.90;;;8.30;99.90;;;;;;4971325;28;20410;-69
2021/12/08 11:50:32;;;;;;;1999.90;999.90;;;8.40;99.90;;;;;;4970328;28;20545;-69
2021/12/08 11:52:57;;;;;;;1999.90;999.90;;;8.40;99.90;;;;;;4971012;28;20840;-70
2021/12/08 11:55:25;;;;;;;1999.90;999.90;;;8.30;99.90;;;;;;4970656;28;20501;-71
2021/12/08 11:57:56;;;;;;;1999.90;999.90;;;8.20;99.90;;;;;;4970521;28;20175;-71
2021/12/08 12:00:30;;;;;;;1999.90;999.90;;;8.20;99.90;;;;;;4970185;28;20449;-72
2021/12/08 12:03:00;;;;;;;1999.90;999.90;;;8.30;99.90;;;;;;4970592;28;20442;-72
2021/12/08 12:05:45;;;;;;;1999.90;999.90;;;8.40;99.90;;;;;;4970252;28;20910;-71
2021/12/08 12:08:15;;;;;;;1999.90;999.90;;;8.30;99.90;;;;;;4970551;28;20406;-71
2021/12/08 12:10:44;;;;;;;1999.90;999.90;;;8.50;99.90;;;;;;4969856;28;20518;-71
2021/12/08 12:13:12;;;;;;;1999.90;999.90;;;8.50;99.90;;;;;;4970205;28;20444;-71
2021/12/08 12:15:41;;;;;;;1999.90;999.90;;;8.60;99.90;;;;;;4970273;28;20410;-71
2021/12/08 12:18:08;;;;;;;1999.90;999.90;;;8.70;99.90;;;;;;4970471;28;20410;-71
2021/12/08 12:20:41;;;;;;;1999.90;999.90;;;8.80;99.90;;;;;;4969669;28;20438;-71
2021/12/08 12:23:28;;;;;;;1999.90;999.90;;;8.90;99.90;;;;;;4970245;28;20429;-71
2021/12/08 12:26:31;;;;;;;1999.90;999.90;;;9.00;99.90;;;;;;4970195;28;20394;-71
2021/12/08 12:29:07;;;;;;;1999.90;999.90;;;9.00;99.90;;;;;;4968682;28;20533;-71
2021/12/08 12:31:59;;;;;;;1999.90;999.90;;;8.90;99.90;;;;;;4977935;28;20946;-71
2021/12/08 12:34:32;;;;;;;1999.90;999.90;;;8.90;99.90;;;;;;4970109;28;20410;-72
2021/12/08 12:37:02;;;;;;;1999.90;999.90;;;9.00;99.90;;;;;;4970639;28;20399;-71
2021/12/08 12:39:29;;;;;;;1999.90;999.90;;;9.10;99.90;;;;;;4969660;28;20402;-70
2021/12/08 12:42:13;;;;;;;1999.90;999.90;;;9.10;99.90;;;;;;4969046;28;20487;-70
2021/12/08 12:45:05;;;;;;;1999.90;999.90;;;9.20;99.90;;;;;;4969950;28;20406;-69
2021/12/08 12:47:31;;;;;;;1999.90;999.90;;;9.40;99.90;;;;;;4970187;28;20497;-70
2021/12/08 12:50:00;;;;;;;1999.90;999.90;;;9.30;99.90;;;;;;4969437;28;20455;-70
2021/12/08 12:52:58;;;;;;;1999.90;999.90;;;9.50;99.90;;;;;;4970139;28;20426;-69
2021/12/08 12:55:38;;;;;;;1999.90;999.90;;;9.50;99.90;;;;;;4969495;28;20436;-69
2021/12/08 12:58:07;;;;;;;1999.90;999.90;;;9.30;99.90;;;;;;4969809;28;20409;-69
2021/12/08 13:01:08;;;;;;;1999.90;999.90;;;9.30;99.90;;;;;;4969119;28;20592;-70
2021/12/08 13:03:42;;;;;;;1999.90;999.90;;;9.40;99.90;;;;;;4958660;28;20536;-70
2021/12/08 13:06:10;;;;;;;1999.90;999.90;;;9.40;99.90;;;;;;4968704;28;20394;-70
2021/12/08 13:08:39;;;;;;;1999.90;999.90;;;9.30;99.90;;;;;;4969456;28;20446;-70
2021/12/08 13:11:29;;;;;;;1999.90;999.90;;;9.30;99.90;;;;;;4969308;28;20516;-70
2021/12/08 13:13:56;;;;;;;1999.90;999.90;;;9.50;99.90;;;;;;4969399;28;20919;-69